Terminal Aerodrome Forecast
Issued by NWS Portland, OR

Current Version | Previous Version | Text Only | Print | Product List | Glossary On
Versions: 1 2 3 4 5 6 7 8 9 10 11 12 13 14 15 16 17 18 19 20 21 22 23 24 25 26 27 28 29 30
000
FTUS46 KPQR 281511 AAB
TAFPDX
TAF AMD
KPDX 281511Z 2815/0112 22004KT P6SM VCSH FEW030 BKN060
     FM281800 22004KT P6SM -SHRA SCT025 BKN050
     FM010400 19006KT P6SM -RA SCT035 OVC050=

USA.gov is the U.S. government's official web portal to all federal, state and local government web resources and services.